Mairinque, Brazil
Current Conditions -  °F | °C
As of 5:00 AM on Friday 24 Oct 2014 (Local Time) from SBSP Reporting Station
Haze Haze  
Wind Chill: 63°   Ceiling: 700
Heat Index: 63°   Visibility: 3mi
Dew Point: 57°   Wind: 3mph
Humidity: 82%   Direction: 60°ENE
Pressure: 30.06"   Gusts: NA
Location:  23.55°S, 47.18°W
Report Text: SBSP 240700Z 06003KT 5000 BR SCT004 BKN007 17/14 Q1018
Loading
Personal Weather Stations






























Interactive Weather Map
Tropical Storm Tracking
New forecast layout! Learn more

10-Day Weather Forecast

Advertisements
Track Severe Weather on mobile